Time;durP1;ratioP1;P1;durP2;ratioP2;P2;SDS_P1;SDS_P2;PMS_P1;PMS_P2;Temp;Humidity;BMP_temperature;BMP_pressure;BME280_temperature;BME280_humidity;BME280_pressure;Samples;Min_cycle;Max_cycle;Signal;HPM_P1;HPM_P2
2024/02/19 00:01:43;;;;;;;932.27;866.17;;;9.20;99.90;;;;;;5052767;28;20462;-66
2024/02/19 00:04:10;;;;;;;941.50;873.40;;;9.10;99.90;;;;;;5051853;28;20994;-67
2024/02/19 00:06:38;;;;;;;945.00;874.30;;;9.00;99.90;;;;;;5052627;28;20838;-67
2024/02/19 00:09:05;;;;;;;943.73;872.27;;;9.00;99.90;;;;;;5052377;28;20454;-66
2024/02/19 00:11:32;;;;;;;930.43;858.70;;;9.00;99.90;;;;;;5052194;28;20451;-67
2024/02/19 00:13:58;;;;;;;945.10;868.70;;;9.00;99.90;;;;;;5051767;28;20982;-66
2024/02/19 00:16:25;;;;;;;853.77;781.57;;;9.00;99.90;;;;;;5052211;28;20533;-66
2024/02/19 00:18:52;;;;;;;846.00;775.50;;;8.90;99.90;;;;;;5052257;28;20493;-66
2024/02/19 00:21:19;;;;;;;877.70;800.00;;;8.90;99.90;;;;;;5052241;28;20459;-66
2024/02/19 00:23:47;;;;;;;900.07;820.73;;;8.90;99.90;;;;;;5051812;28;20471;-66
2024/02/19 00:26:14;;;;;;;909.37;827.57;;;8.90;99.90;;;;;;5044023;28;20451;-66
2024/02/19 00:28:41;;;;;;;899.10;818.07;;;8.90;99.90;;;;;;5051963;28;20459;-66
2024/02/19 00:31:11;;;;;;;898.47;816.90;;;8.90;99.90;;;;;;5052210;28;20830;-66
2024/02/19 00:33:38;;;;;;;962.27;877.47;;;8.90;99.90;;;;;;5051736;28;20516;-66
2024/02/19 00:36:05;;;;;;;954.00;870.23;;;8.90;99.90;;;;;;5052007;28;20457;-67
2024/02/19 00:38:32;;;;;;;963.20;880.00;;;8.90;99.90;;;;;;5051881;28;20478;-66
2024/02/19 00:41:01;;;;;;;964.03;881.00;;;8.80;99.90;;;;;;5051754;28;20455;-65
2024/02/19 00:43:28;;;;;;;1005.70;922.80;;;8.90;99.90;;;;;;5051265;28;20474;-66
2024/02/19 00:45:55;;;;;;;997.97;916.57;;;8.80;99.90;;;;;;5052147;28;20546;-66
2024/02/19 00:48:22;;;;;;;983.63;905.10;;;8.90;99.90;;;;;;5052296;28;20453;-66
2024/02/19 00:50:48;;;;;;;988.77;910.37;;;8.90;99.90;;;;;;5052375;28;20488;-67
2024/02/19 00:53:16;;;;;;;988.73;911.73;;;8.90;99.90;;;;;;5052132;28;20475;-66
2024/02/19 00:55:42;;;;;;;990.43;912.97;;;8.90;99.90;;;;;;5051996;28;20486;-66
2024/02/19 00:58:10;;;;;;;990.90;915.40;;;8.80;99.90;;;;;;5051358;28;20490;-66
2024/02/19 01:00:37;;;;;;;976.40;902.60;;;8.90;99.90;;;;;;5051998;28;20459;-66
2024/02/19 01:03:05;;;;;;;985.57;913.37;;;8.90;99.90;;;;;;5051285;28;20475;-66
2024/02/19 01:05:32;;;;;;;971.10;902.60;;;8.90;99.90;;;;;;5051421;28;20451;-66
2024/02/19 01:07:59;;;;;;;975.33;906.53;;;9.10;99.90;;;;;;5055258;28;20458;-66
2024/02/19 01:10:26;;;;;;;977.03;909.33;;;9.00;99.90;;;;;;5055426;28;20454;-66
2024/02/19 01:12:53;;;;;;;976.10;907.30;;;8.90;99.90;;;;;;5055603;28;20554;-66
2024/02/19 01:15:21;;;;;;;970.87;903.90;;;8.90;99.90;;;;;;5055860;28;20451;-66
2024/02/19 01:17:48;;;;;;;985.10;917.43;;;8.90;99.90;;;;;;5055584;28;20832;-66
2024/02/19 01:20:15;;;;;;;960.40;894.60;;;9.00;99.90;;;;;;5055400;28;20466;-66
2024/02/19 01:22:42;;;;;;;959.40;895.20;;;9.00;99.90;;;;;;5055002;28;20479;-67
2024/02/19 01:25:10;;;;;;;944.43;881.07;;;8.90;99.90;;;;;;5055160;28;20454;-67
2024/02/19 01:27:36;;;;;;;925.60;863.90;;;9.00;99.90;;;;;;5055608;28;20470;-66
2024/02/19 01:30:03;;;;;;;920.90;860.03;;;9.00;99.90;;;;;;5055412;28;20446;-66
2024/02/19 01:32:32;;;;;;;917.47;856.37;;;9.00;99.90;;;;;;5054861;28;20471;-67
2024/02/19 01:34:58;;;;;;;897.00;838.40;;;9.00;99.90;;;;;;5055285;28;20454;-67
2024/02/19 01:37:25;;;;;;;882.63;825.03;;;9.00;99.90;;;;;;5055190;28;20451;-66
2024/02/19 01:39:52;;;;;;;854.73;799.33;;;8.90;99.90;;;;;;5055253;28;20483;-66
2024/02/19 01:42:19;;;;;;;847.23;792.43;;;9.00;99.90;;;;;;5054868;28;20860;-65
2024/02/19 01:44:46;;;;;;;800.17;748.67;;;9.00;99.90;;;;;;5055360;28;20459;-67
2024/02/19 01:47:14;;;;;;;853.30;797.67;;;9.00;99.90;;;;;;5055096;28;20451;-67
2024/02/19 01:49:44;;;;;;;873.93;817.67;;;8.90;99.90;;;;;;5055055;28;20473;-67
2024/02/19 01:52:12;;;;;;;886.43;829.13;;;8.90;99.90;;;;;;5054370;28;20840;-66
2024/02/19 01:54:39;;;;;;;891.67;833.80;;;8.90;99.90;;;;;;5054911;28;20457;-67
2024/02/19 01:57:07;;;;;;;905.20;846.63;;;8.90;99.90;;;;;;5054725;28;20458;-66
2024/02/19 01:59:34;;;;;;;927.00;866.10;;;8.90;99.90;;;;;;5053370;28;20485;-66
2024/02/19 02:02:02;;;;;;;917.30;856.33;;;8.90;99.90;;;;;;5052693;28;20450;-67
2024/02/19 02:04:30;;;;;;;849.57;795.27;;;8.90;99.90;;;;;;5053134;28;20837;-66
2024/02/19 02:06:58;;;;;;;758.53;713.20;;;8.90;99.90;;;;;;5053546;28;20462;-66
2024/02/19 02:09:25;;;;;;;771.07;724.77;;;9.00;99.90;;;;;;5053571;28;20451;-67
2024/02/19 02:11:52;;;;;;;727.43;688.33;;;8.90;99.90;;;;;;5053717;28;20451;-67
2024/02/19 02:14:19;;;;;;;687.73;656.33;;;9.00;99.90;;;;;;5053134;28;20474;-67
2024/02/19 02:16:46;;;;;;;707.97;675.77;;;9.00;99.90;;;;;;5053157;28;20461;-67
2024/02/19 02:19:15;;;;;;;783.97;742.03;;;8.90;99.90;;;;;;5052843;28;20585;-66
2024/02/19 02:21:42;;;;;;;836.97;786.77;;;8.80;99.90;;;;;;5053356;28;20459;-66
2024/02/19 02:24:11;;;;;;;830.20;779.83;;;8.80;99.90;;;;;;5052813;28;20471;-67
2024/02/19 02:26:40;;;;;;;841.27;788.80;;;8.90;99.90;;;;;;5053180;28;20483;-67
2024/02/19 02:29:07;;;;;;;843.97;790.70;;;8.90;99.90;;;;;;5053045;28;20837;-67
2024/02/19 02:31:34;;;;;;;849.97;794.77;;;8.90;99.90;;;;;;5053219;28;20589;-66
2024/02/19 02:34:00;;;;;;;835.57;781.00;;;8.90;99.90;;;;;;5052509;28;20475;-67
2024/02/19 02:36:29;;;;;;;841.60;788.50;;;8.90;99.90;;;;;;5053375;28;20455;-67
2024/02/19 02:38:55;;;;;;;819.80;765.90;;;8.90;99.90;;;;;;5052936;28;20506;-68
2024/02/19 02:41:22;;;;;;;824.20;770.13;;;8.90;99.90;;;;;;5053304;28;20451;-68
2024/02/19 02:43:50;;;;;;;808.50;756.57;;;8.90;99.90;;;;;;5052685;28;20475;-67
2024/02/19 02:46:17;;;;;;;805.50;754.30;;;8.90;99.90;;;;;;5052686;28;20448;-67
2024/02/19 02:48:44;;;;;;;817.97;768.37;;;8.90;99.90;;;;;;5053090;28;20837;-68
2024/02/19 02:51:11;;;;;;;812.97;764.77;;;8.90;99.90;;;;;;5052894;28;20839;-68
2024/02/19 02:53:38;;;;;;;807.80;760.83;;;8.90;99.90;;;;;;5052136;28;20566;-67
2024/02/19 02:56:05;;;;;;;804.97;759.13;;;8.90;99.90;;;;;;5052562;28;20451;-67
2024/02/19 02:58:33;;;;;;;781.58;739.30;;;8.90;99.90;;;;;;5014964;28;1081241;-67
2024/02/19 03:01:01;;;;;;;722.13;688.47;;;8.90;99.90;;;;;;5053664;28;20634;-68
2024/02/19 03:03:32;;;;;;;672.83;643.27;;;8.90;99.90;;;;;;5053590;28;20475;-67
2024/02/19 03:05:59;;;;;;;720.80;688.27;;;8.80;99.90;;;;;;5053536;28;20736;-68
2024/02/19 03:08:26;;;;;;;746.07;709.50;;;8.90;99.90;;;;;;5053599;28;20906;-68
2024/02/19 03:10:53;;;;;;;659.63;631.30;;;8.80;99.90;;;;;;5053402;28;20462;-68
2024/02/19 03:13:19;;;;;;;654.73;627.17;;;8.70;99.90;;;;;;5052856;28;20475;-67
2024/02/19 03:15:46;;;;;;;712.80;680.77;;;8.70;99.90;;;;;;5053858;28;20458;-67
2024/02/19 03:18:14;;;;;;;729.03;694.27;;;8.70;99.90;;;;;;5053382;28;20478;-67
2024/02/19 03:20:41;;;;;;;756.10;719.30;;;8.70;99.90;;;;;;5053509;28;20854;-68
2024/02/19 03:23:08;;;;;;;655.37;626.47;;;8.70;99.90;;;;;;5052671;28;20476;-68
2024/02/19 03:25:35;;;;;;;531.77;511.50;;;8.70;99.90;;;;;;5053164;28;20483;-68
2024/02/19 03:28:02;;;;;;;569.57;548.07;;;8.80;99.90;;;;;;5053045;28;20831;-68
2024/02/19 03:30:29;;;;;;;620.17;595.00;;;8.80;99.90;;;;;;5052462;28;20451;-67
2024/02/19 03:32:56;;;;;;;618.73;593.60;;;8.80;99.90;;;;;;5052728;28;21018;-67
2024/02/19 03:35:24;;;;;;;645.07;616.97;;;8.80;99.90;;;;;;5053440;28;20465;-67
2024/02/19 03:37:51;;;;;;;674.50;643.87;;;8.80;99.90;;;;;;5053210;28;20833;-66
2024/02/19 03:40:18;;;;;;;703.93;670.97;;;8.80;99.90;;;;;;5052846;28;20529;-67
2024/02/19 03:42:45;;;;;;;724.97;691.30;;;8.80;99.90;;;;;;5052648;28;20501;-67
2024/02/19 03:45:12;;;;;;;747.50;712.47;;;8.90;99.90;;;;;;5052866;28;20490;-66
2024/02/19 03:47:41;;;;;;;756.43;720.57;;;8.90;99.90;;;;;;5052884;28;20842;-67
2024/02/19 03:50:08;;;;;;;717.63;683.60;;;8.90;99.90;;;;;;5052873;28;20451;-66
2024/02/19 03:52:36;;;;;;;702.80;669.50;;;8.90;99.90;;;;;;5052251;28;20477;-67
2024/02/19 03:55:03;;;;;;;724.27;689.70;;;8.90;99.90;;;;;;5052655;28;20958;-67
2024/02/19 03:57:31;;;;;;;749.93;713.27;;;8.90;99.90;;;;;;5052757;28;20462;-66
2024/02/19 03:59:58;;;;;;;782.67;743.27;;;8.90;99.90;;;;;;5052378;28;20482;-67
2024/02/19 04:02:25;;;;;;;782.03;742.07;;;9.00;99.90;;;;;;5052347;28;20471;-67
2024/02/19 04:04:51;;;;;;;781.30;741.50;;;8.90;99.90;;;;;;5052714;28;20454;-67
2024/02/19 04:07:18;;;;;;;753.83;716.90;;;8.80;99.90;;;;;;5052629;28;20451;-67
2024/02/19 04:09:46;;;;;;;759.33;721.37;;;8.80;99.90;;;;;;5052646;28;20455;-67
2024/02/19 04:12:13;;;;;;;739.37;704.73;;;8.80;99.90;;;;;;5052535;28;20451;-67
2024/02/19 04:14:41;;;;;;;729.17;695.17;;;8.80;99.90;;;;;;5052861;28;20447;-67
2024/02/19 04:17:08;;;;;;;714.33;681.40;;;8.80;99.90;;;;;;5052562;28;20458;-67
2024/02/19 04:19:34;;;;;;;674.13;644.63;;;8.80;99.90;;;;;;5052352;28;20995;-67
2024/02/19 04:22:01;;;;;;;644.20;616.83;;;8.90;99.90;;;;;;5051935;28;20840;-67
2024/02/19 04:24:28;;;;;;;602.10;574.23;;;8.80;99.90;;;;;;5052080;28;20451;-67
2024/02/19 04:26:56;;;;;;;557.53;535.70;;;8.80;99.90;;;;;;5052058;28;20483;-67
2024/02/19 04:29:23;;;;;;;543.13;521.47;;;8.90;99.90;;;;;;5052202;28;20972;-67
2024/02/19 04:31:50;;;;;;;541.77;520.67;;;8.90;99.90;;;;;;5051965;28;20825;-67
2024/02/19 04:34:17;;;;;;;538.57;517.70;;;8.90;99.90;;;;;;5051672;28;20471;-66
2024/02/19 04:36:43;;;;;;;510.70;490.77;;;8.90;99.90;;;;;;5051746;28;20451;-67
2024/02/19 04:39:11;;;;;;;473.50;455.00;;;8.90;99.90;;;;;;5051956;28;20486;-67
2024/02/19 04:41:38;;;;;;;495.73;475.53;;;8.90;99.90;;;;;;5051968;28;20462;-66
2024/02/19 04:44:06;;;;;;;411.27;395.70;;;8.90;99.90;;;;;;5051287;28;20482;-66
2024/02/19 04:46:34;;;;;;;412.40;396.63;;;8.90;99.90;;;;;;5051908;28;20459;-67
2024/02/19 04:49:01;;;;;;;365.57;351.60;;;8.90;99.90;;;;;;5051843;28;20451;-67
2024/02/19 04:51:28;;;;;;;349.97;336.30;;;9.00;99.90;;;;;;5051856;28;20947;-67
2024/02/19 04:53:55;;;;;;;330.27;316.73;;;8.90;99.90;;;;;;5051452;28;20850;-66
2024/02/19 04:56:22;;;;;;;350.63;336.83;;;9.00;99.90;;;;;;5052090;28;20834;-67
2024/02/19 04:58:48;;;;;;;340.40;327.53;;;8.90;99.90;;;;;;5051639;28;21000;-66
2024/02/19 05:01:16;;;;;;;289.27;278.07;;;8.90;99.90;;;;;;5051752;28;20494;-66
2024/02/19 05:03:43;;;;;;;328.33;315.13;;;8.90;99.90;;;;;;5051035;28;20471;-66
2024/02/19 05:06:10;;;;;;;271.60;260.50;;;8.90;99.90;;;;;;5051775;28;20830;-67
2024/02/19 05:08:37;;;;;;;232.73;223.27;;;8.90;99.90;;;;;;5051874;28;20455;-67
2024/02/19 05:11:04;;;;;;;271.57;260.83;;;9.00;99.90;;;;;;5051504;28;20453;-66
2024/02/19 05:13:35;;;;;;;279.90;268.33;;;8.90;99.90;;;;;;5051199;28;20471;-66
2024/02/19 05:16:02;;;;;;;271.93;260.83;;;8.90;99.90;;;;;;5051534;28;20458;-67
2024/02/19 05:18:30;;;;;;;244.70;233.70;;;8.90;99.90;;;;;;5051334;28;20551;-66
2024/02/19 05:20:57;;;;;;;238.53;227.93;;;9.00;99.90;;;;;;5051625;28;20486;-66
2024/02/19 05:23:24;;;;;;;256.07;245.00;;;8.90;99.90;;;;;;5051407;28;20982;-66
2024/02/19 05:25:50;;;;;;;284.43;272.33;;;8.90;99.90;;;;;;5051705;28;20459;-67
2024/02/19 05:28:17;;;;;;;281.13;269.10;;;8.90;99.90;;;;;;5051811;28;20542;-67
2024/02/19 05:30:44;;;;;;;289.27;275.97;;;8.90;99.90;;;;;;5051664;28;20447;-67
2024/02/19 05:33:11;;;;;;;281.23;268.47;;;8.90;99.90;;;;;;5051375;28;20871;-66
2024/02/19 05:35:39;;;;;;;265.43;253.17;;;8.90;99.90;;;;;;5051458;28;20462;-67
2024/02/19 05:38:06;;;;;;;257.13;245.57;;;8.90;99.90;;;;;;5051620;28;20554;-66
2024/02/19 05:40:32;;;;;;;276.90;264.70;;;8.90;99.90;;;;;;5051353;28;20842;-66
2024/02/19 05:42:59;;;;;;;268.83;256.90;;;8.90;99.90;;;;;;5051105;28;20475;-67
2024/02/19 05:45:26;;;;;;;270.30;258.50;;;8.90;99.90;;;;;;5051441;28;20455;-66
2024/02/19 05:47:53;;;;;;;261.10;249.27;;;8.90;99.90;;;;;;5051331;28;20447;-66
2024/02/19 05:50:20;;;;;;;274.10;261.73;;;8.80;99.90;;;;;;5051096;28;20451;-66
2024/02/19 05:52:48;;;;;;;261.50;249.47;;;8.90;99.90;;;;;;5052217;28;20474;-66
2024/02/19 05:55:15;;;;;;;271.40;259.40;;;8.80;99.90;;;;;;5054885;28;20454;-67
2024/02/19 05:57:41;;;;;;;279.03;266.40;;;8.80;99.90;;;;;;5054983;28;20447;-66
2024/02/19 06:00:13;;;;;;;288.50;274.07;;;8.80;99.90;;;;;;5054506;28;20490;-67
2024/02/19 06:02:40;;;;;;;305.07;290.40;;;8.80;99.90;;;;;;5054331;28;20883;-67
2024/02/19 06:05:07;;;;;;;309.57;294.23;;;8.80;99.90;;;;;;5054650;28;20954;-66
2024/02/19 06:07:34;;;;;;;332.40;315.40;;;8.80;99.90;;;;;;5054740;28;20463;-67
2024/02/19 06:10:02;;;;;;;330.77;315.17;;;8.80;99.90;;;;;;5054422;28;20454;-66
2024/02/19 06:12:29;;;;;;;323.27;307.57;;;8.80;99.90;;;;;;5053918;28;20546;-66
2024/02/19 06:14:55;;;;;;;355.83;337.67;;;8.80;99.90;;;;;;5054634;28;20455;-67
2024/02/19 06:17:22;;;;;;;371.80;351.80;;;8.70;99.90;;;;;;5054707;28;20451;-66
2024/02/19 06:19:49;;;;;;;383.63;363.60;;;8.70;99.90;;;;;;5054269;28;20487;-66
2024/02/19 06:22:16;;;;;;;396.97;376.47;;;8.80;99.90;;;;;;5053871;28;20485;-66
2024/02/19 06:24:44;;;;;;;405.73;384.10;;;8.70;99.90;;;;;;5054075;28;20451;-67
2024/02/19 06:27:12;;;;;;;388.27;367.87;;;8.70;99.90;;;;;;5054017;28;20463;-67
2024/02/19 06:29:38;;;;;;;388.67;368.37;;;8.80;99.90;;;;;;5054568;28;20970;-67
2024/02/19 06:32:06;;;;;;;381.57;362.17;;;8.80;99.90;;;;;;5054288;28;20455;-67
2024/02/19 06:34:34;;;;;;;383.00;363.67;;;8.80;99.90;;;;;;5054338;28;20509;-67
2024/02/19 06:37:01;;;;;;;388.60;368.70;;;8.80;99.90;;;;;;5053676;28;20487;-66
2024/02/19 06:39:28;;;;;;;398.77;378.93;;;8.90;99.90;;;;;;5053954;28;20454;-66
2024/02/19 06:41:54;;;;;;;391.83;370.20;;;8.90;99.90;;;;;;5053682;28;20462;-66
2024/02/19 06:44:22;;;;;;;398.70;377.33;;;8.90;99.90;;;;;;5053482;28;20483;-67
2024/02/19 06:46:49;;;;;;;396.67;376.57;;;8.90;99.90;;;;;;5053807;28;20965;-67
2024/02/19 06:49:16;;;;;;;383.33;363.93;;;8.90;99.90;;;;;;5053884;28;20455;-67
2024/02/19 06:51:43;;;;;;;380.30;361.57;;;8.90;99.90;;;;;;5053909;28;20455;-66
2024/02/19 06:54:09;;;;;;;383.73;364.27;;;9.00;99.90;;;;;;5053696;28;20475;-66
2024/02/19 06:56:36;;;;;;;381.23;362.10;;;9.00;99.90;;;;;;5053731;28;20461;-67
2024/02/19 06:59:03;;;;;;;373.13;354.60;;;9.10;99.90;;;;;;5053177;28;20204;-67
2024/02/19 07:01:31;;;;;;;370.13;351.83;;;9.10;99.90;;;;;;5053573;28;20487;-67
2024/02/19 07:03:58;;;;;;;370.00;352.00;;;9.10;99.90;;;;;;5051851;28;21010;-67
2024/02/19 07:06:25;;;;;;;370.80;352.00;;;9.10;99.90;;;;;;5053875;28;20451;-67
2024/02/19 07:08:52;;;;;;;374.60;356.20;;;9.10;99.90;;;;;;5053336;28;20963;-66
2024/02/19 07:11:19;;;;;;;369.13;350.33;;;9.10;99.90;;;;;;5053527;28;20455;-66
2024/02/19 07:13:48;;;;;;;368.10;350.00;;;9.10;99.90;;;;;;5052869;28;20479;-66
2024/02/19 07:16:14;;;;;;;358.13;341.00;;;9.20;99.90;;;;;;5045406;28;20555;-66
2024/02/19 07:18:42;;;;;;;361.57;344.07;;;9.40;99.90;;;;;;5053759;28;20451;-68
2024/02/19 07:21:09;;;;;;;353.80;337.30;;;9.30;99.90;;;;;;5063200;28;20467;-65
2024/02/19 07:23:36;;;;;;;338.20;322.50;;;9.20;99.90;;;;;;5073278;28;20467;-67
2024/02/19 07:26:03;;;;;;;336.73;321.00;;;9.30;99.90;;;;;;5071377;28;20479;-67
2024/02/19 07:28:30;;;;;;;328.20;313.10;;;9.30;99.90;;;;;;5056992;28;20931;-67
2024/02/19 07:30:56;;;;;;;321.83;307.73;;;9.40;99.90;;;;;;5053638;28;20451;-67
2024/02/19 07:33:23;;;;;;;284.97;272.67;;;9.40;99.90;;;;;;5052424;28;20481;-66
2024/02/19 07:35:51;;;;;;;268.77;257.50;;;9.50;99.90;;;;;;5052779;28;20447;-66
2024/02/19 07:38:20;;;;;;;255.23;244.53;;;9.50;99.90;;;;;;5053176;28;20454;-66
2024/02/19 07:40:47;;;;;;;254.50;244.57;;;9.50;99.90;;;;;;5053254;28;20483;-66
2024/02/19 07:43:13;;;;;;;236.57;227.67;;;9.60;99.90;;;;;;5044316;28;20882;-66
2024/02/19 07:45:40;;;;;;;251.37;240.37;;;9.60;99.90;;;;;;5052877;28;20451;-67
2024/02/19 07:48:08;;;;;;;242.33;232.93;;;9.60;99.90;;;;;;5052725;28;20458;-66
2024/02/19 07:50:35;;;;;;;221.90;213.47;;;9.70;99.90;;;;;;5052553;28;20950;-66
2024/02/19 07:53:03;;;;;;;214.40;206.50;;;9.70;99.90;;;;;;5052331;28;20475;-67
2024/02/19 07:55:32;;;;;;;226.03;216.70;;;9.70;99.90;;;;;;5052757;28;20820;-66
2024/02/19 07:57:59;;;;;;;236.53;227.30;;;9.70;99.90;;;;;;5052454;28;20455;-67
2024/02/19 08:00:25;;;;;;;212.10;204.03;;;9.70;99.90;;;;;;5050253;28;21044;-66
2024/02/19 08:02:52;;;;;;;210.80;203.07;;;9.80;99.90;;;;;;5050705;28;20993;-66
2024/02/19 08:05:19;;;;;;;210.17;202.10;;;9.80;99.90;;;;;;5051796;28;20455;-66
2024/02/19 08:07:46;;;;;;;208.33;199.93;;;9.90;99.90;;;;;;5051610;28;20451;-66
2024/02/19 08:10:14;;;;;;;214.30;205.77;;;9.90;99.90;;;;;;5050656;28;20451;-65
2024/02/19 08:12:41;;;;;;;205.47;198.30;;;10.00;99.90;;;;;;5051146;28;20475;-66
2024/02/19 08:15:09;;;;;;;211.23;203.00;;;10.10;99.90;;;;;;5049559;28;20451;-67
2024/02/19 08:17:36;;;;;;;194.60;186.87;;;10.10;99.90;;;;;;5049608;28;20513;-66
2024/02/19 08:20:04;;;;;;;184.77;177.50;;;10.20;99.90;;;;;;5051264;28;20547;-67
2024/02/19 08:22:31;;;;;;;166.80;159.67;;;10.20;99.90;;;;;;5051854;28;20502;-66
2024/02/19 08:24:57;;;;;;;157.47;150.50;;;10.30;99.90;;;;;;5051478;28;20455;-66
2024/02/19 08:27:27;;;;;;;165.27;158.10;;;10.30;99.90;;;;;;5051301;28;20855;-66
2024/02/19 08:29:54;;;;;;;149.20;142.60;;;10.30;99.90;;;;;;5050781;28;20458;-71
2024/02/19 08:32:21;;;;;;;154.83;148.53;;;10.40;99.90;;;;;;5049254;28;21012;-68
2024/02/19 08:34:47;;;;;;;167.37;160.77;;;10.40;99.90;;;;;;5051170;28;20451;-67
2024/02/19 08:37:17;;;;;;;154.43;148.37;;;10.40;99.90;;;;;;5051244;28;20947;-67
2024/02/19 08:39:45;;;;;;;137.80;130.67;;;10.50;99.90;;;;;;5051777;28;20457;-66
2024/02/19 08:42:12;;;;;;;158.77;152.00;;;10.60;99.90;;;;;;5051395;28;20582;-66
2024/02/19 08:44:40;;;;;;;135.03;129.33;;;10.80;99.90;;;;;;5051368;28;20461;-66
2024/02/19 08:47:09;;;;;;;98.50;93.70;;;10.70;99.90;;;;;;5051775;28;20903;-68
2024/02/19 08:49:37;;;;;;;99.33;94.93;;;10.80;99.90;;;;;;5051834;28;20581;-66
2024/02/19 08:52:04;;;;;;;89.13;84.20;;;10.90;99.90;;;;;;5051530;28;20859;-66
2024/02/19 08:54:31;;;;;;;85.30;81.00;;;10.90;99.90;;;;;;5051659;28;20451;-67
2024/02/19 08:56:58;;;;;;;83.63;79.60;;;10.90;99.90;;;;;;5051552;28;20451;-66
2024/02/19 08:59:26;;;;;;;67.40;63.20;;;11.00;99.90;;;;;;5051446;28;20524;-66
2024/02/19 09:01:54;;;;;;;62.83;58.63;;;11.20;99.90;;;;;;5051135;28;20455;-67
2024/02/19 09:04:21;;;;;;;89.47;84.30;;;11.10;99.90;;;;;;5050232;28;20447;-66
2024/02/19 09:06:48;;;;;;;62.80;58.83;;;11.10;99.90;;;;;;5051565;28;20209;-67
2024/02/19 09:09:14;;;;;;;45.67;42.33;;;11.20;99.90;;;;;;5051611;28;20447;-67
2024/02/19 09:11:41;;;;;;;45.57;41.97;;;11.20;99.90;;;;;;5051409;28;20450;-66
2024/02/19 09:14:08;;;;;;;43.67;39.47;;;11.30;99.90;;;;;;5051045;28;20478;-66
2024/02/19 09:16:35;;;;;;;39.43;36.00;;;11.30;99.90;;;;;;5051619;28;20454;-66
2024/02/19 09:19:06;;;;;;;45.17;41.50;;;11.40;99.90;;;;;;5051323;28;20939;-66
2024/02/19 09:21:33;;;;;;;44.87;41.20;;;11.50;99.90;;;;;;5051454;28;20483;-67
2024/02/19 09:23:59;;;;;;;46.93;43.40;;;11.60;99.90;;;;;;5050923;28;20498;-66
2024/02/19 09:26:26;;;;;;;37.83;34.90;;;11.70;99.90;;;;;;5051375;28;20458;-66
2024/02/19 09:28:53;;;;;;;36.83;33.70;;;11.80;99.90;;;;;;5054937;28;20462;-67
2024/02/19 09:31:23;;;;;;;33.30;29.97;;;11.70;99.90;;;;;;5055470;28;20458;-66
2024/02/19 09:33:49;;;;;;;29.83;27.33;;;11.90;99.90;;;;;;5054712;28;20525;-66
2024/02/19 09:36:18;;;;;;;36.13;33.23;;;11.80;99.90;;;;;;5055359;28;20455;-67
2024/02/19 09:38:46;;;;;;;32.60;25.73;;;12.10;99.90;;;;;;5055215;28;20954;-67
2024/02/19 09:41:13;;;;;;;26.73;23.10;;;12.10;99.90;;;;;;5055159;28;20483;-66
2024/02/19 09:43:40;;;;;;;26.23;22.97;;;12.20;99.90;;;;;;5054779;28;20843;-67
2024/02/19 09:46:14;;;;;;;21.63;15.70;;;12.20;99.90;;;;;;5055054;28;20922;-66
2024/02/19 09:48:44;;;;;;;23.27;14.80;;;12.40;99.90;;;;;;5054901;28;20454;-66
2024/02/19 09:51:17;;;;;;;20.30;12.60;;;12.30;99.90;;;;;;5054784;28;20968;-66
2024/02/19 09:53:49;;;;;;;19.97;11.00;;;12.50;99.90;;;;;;5054420;28;20475;-66
2024/02/19 09:56:17;;;;;;;23.67;11.00;;;12.60;99.90;;;;;;5047142;28;20832;-66
2024/02/19 09:58:45;;;;;;;24.20;11.73;;;12.70;99.90;;;;;;5054750;28;20626;-66
2024/02/19 10:01:11;;;;;;;25.43;11.60;;;12.70;99.90;;;;;;5054635;28;20482;-66
2024/02/19 10:03:38;;;;;;;18.13;13.17;;;12.60;99.90;;;;;;5054015;28;21000;-66
2024/02/19 10:06:07;;;;;;;32.50;12.77;;;12.90;99.90;;;;;;5054451;28;20954;-66
2024/02/19 10:08:34;;;;;;;21.43;11.43;;;12.80;99.90;;;;;;5054730;28;20451;-66
2024/02/19 10:11:08;;;;;;;29.30;12.70;;;12.90;99.90;;;;;;5054721;28;20443;-66
2024/02/19 10:13:36;;;;;;;29.67;11.93;;;12.70;99.90;;;;;;5054304;28;20482;-66
2024/02/19 10:16:06;;;;;;;25.67;12.90;;;12.60;99.90;;;;;;5054492;28;20955;-66
2024/02/19 10:18:33;;;;;;;24.43;11.47;;;12.60;99.90;;;;;;5054296;28;20461;-67
2024/02/19 10:21:00;;;;;;;23.97;11.67;;;12.60;99.90;;;;;;5054367;28;20475;-67
2024/02/19 10:23:27;;;;;;;27.40;11.90;;;12.50;99.90;;;;;;5054099;28;20477;-66
2024/02/19 10:25:55;;;;;;;22.10;14.13;;;12.50;99.90;;;;;;5053866;28;20923;-66
2024/02/19 10:28:24;;;;;;;19.00;12.37;;;12.40;99.90;;;;;;5054369;28;20201;-66
2024/02/19 10:30:51;;;;;;;25.73;19.90;;;12.30;99.90;;;;;;5053137;28;20458;-66
2024/02/19 10:33:19;;;;;;;23.17;13.97;;;12.20;99.90;;;;;;5053912;28;20228;-66
2024/02/19 10:35:48;;;;;;;22.60;13.97;;;12.20;99.90;;;;;;5054005;28;20455;-66
2024/02/19 10:38:16;;;;;;;19.00;13.87;;;12.10;99.90;;;;;;5053869;28;20451;-67
2024/02/19 10:40:45;;;;;;;32.83;12.40;;;12.10;99.90;;;;;;5054130;28;20509;-67
2024/02/19 10:43:12;;;;;;;22.67;13.20;;;12.00;99.90;;;;;;5053597;28;20475;-66
2024/02/19 10:45:40;;;;;;;23.80;14.47;;;12.10;99.90;;;;;;5054504;28;20498;-67
2024/02/19 10:48:08;;;;;;;24.00;19.93;;;12.10;99.90;;;;;;5054681;28;20487;-66
2024/02/19 10:50:35;;;;;;;19.73;16.00;;;12.20;99.90;;;;;;5054312;28;20550;-67
2024/02/19 10:53:06;;;;;;;24.00;13.20;;;12.30;99.90;;;;;;5053419;28;20592;-66
2024/02/19 10:55:36;;;;;;;22.53;14.60;;;12.40;99.90;;;;;;5053818;28;20823;-67
2024/02/19 10:58:13;;;;;;;21.63;14.40;;;12.60;99.90;;;;;;5053440;28;20479;-67
2024/02/19 11:00:43;;;;;;;23.03;14.70;;;12.80;99.90;;;;;;5053926;28;20454;-65
2024/02/19 11:03:12;;;;;;;26.20;13.07;;;12.80;99.90;;;;;;5053006;28;20486;-66
2024/02/19 11:05:39;;;;;;;28.03;11.63;;;12.90;99.90;;;;;;5053894;28;20509;-67
2024/02/19 11:08:17;;;;;;;30.33;11.03;;;13.10;99.90;;;;;;5053667;28;21056;-67
2024/02/19 11:10:47;;;;;;;26.93;13.70;;;13.20;99.90;;;;;;5053753;28;20837;-67
2024/02/19 11:13:18;;;;;;;19.63;13.17;;;13.30;99.90;;;;;;5053136;28;20585;-67
2024/02/19 11:15:46;;;;;;;27.40;12.20;;;13.60;99.90;;;;;;5053730;28;20451;-67
2024/02/19 11:18:17;;;;;;;24.70;13.83;;;13.40;99.90;;;;;;5053292;28;20456;-66
2024/02/19 11:20:44;;;;;;;27.90;13.50;;;13.20;99.90;;;;;;5052968;28;20451;-66
2024/02/19 11:23:11;;;;;;;23.70;12.03;;;13.20;99.90;;;;;;5052582;28;20661;-67
2024/02/19 11:25:39;;;;;;;21.57;12.27;;;13.10;99.90;;;;;;5053113;28;20844;-66
2024/02/19 11:28:06;;;;;;;23.27;12.43;;;13.20;99.90;;;;;;5053220;28;20902;-66
2024/02/19 11:30:33;;;;;;;22.77;10.60;;;13.20;99.90;;;;;;5053492;28;20451;-67
2024/02/19 11:33:02;;;;;;;23.40;11.40;;;13.20;99.90;;;;;;5052557;28;20474;-67
2024/02/19 11:35:29;;;;;;;21.47;11.40;;;13.20;99.90;;;;;;5052782;28;20959;-66
2024/02/19 11:37:56;;;;;;;20.53;11.40;;;13.30;99.90;;;;;;5052522;28;20451;-67
2024/02/19 11:40:27;;;;;;;26.43;11.77;;;13.30;99.90;;;;;;5053121;28;20466;-67
2024/02/19 11:42:54;;;;;;;19.37;9.33;;;13.30;99.90;;;;;;5052266;28;20487;-66
2024/02/19 11:45:22;;;;;;;18.20;10.13;;;13.20;99.90;;;;;;5052953;28;20451;-67
2024/02/19 11:47:49;;;;;;;23.03;11.53;;;13.20;99.90;;;;;;5052649;28;20448;-65
2024/02/19 11:50:21;;;;;;;21.23;10.67;;;13.00;99.90;;;;;;5051927;28;20467;-66
2024/02/19 11:52:50;;;;;;;19.33;10.03;;;13.00;99.90;;;;;;5052515;28;20467;-66
2024/02/19 11:55:19;;;;;;;21.83;12.20;;;12.80;99.90;;;;;;5052674;28;20517;-67
2024/02/19 11:57:46;;;;;;;25.50;12.63;;;12.50;99.90;;;;;;5052593;28;20459;-66
2024/02/19 12:00:14;;;;;;;27.37;17.47;;;12.50;99.90;;;;;;5052288;28;20462;-66
2024/02/19 12:02:44;;;;;;;23.00;19.37;;;11.90;99.90;;;;;;5051601;28;20913;-67
2024/02/19 12:05:11;;;;;;;37.07;33.43;;;11.70;99.90;;;;;;5052363;28;20517;-67
2024/02/19 12:07:40;;;;;;;70.80;65.83;;;11.40;99.90;;;;;;5052667;28;20548;-67
2024/02/19 12:10:10;;;;;;;117.83;112.37;;;11.30;99.90;;;;;;5052279;28;20550;-65
2024/02/19 12:12:37;;;;;;;217.50;209.10;;;11.00;99.90;;;;;;5052159;28;20549;-66
2024/02/19 12:15:05;;;;;;;247.27;237.47;;;10.90;99.90;;;;;;5051767;28;20521;-66
2024/02/19 12:17:32;;;;;;;294.07;283.07;;;11.00;99.90;;;;;;5052255;28;20451;-66
2024/02/19 12:19:59;;;;;;;370.00;356.80;;;11.20;99.90;;;;;;5052337;28;20466;-66